sensor_id;sensor_type;location;lat;lon;timestamp;P1;durP1;ratioP1;P2;durP2;ratioP2
22826;SDS011;11580;52.562;13.418;2023-09-19T00:00:34;4.03;;;2.47;;
22826;SDS011;11580;52.562;13.418;2023-09-19T00:03:01;2.50;;;2.30;;
22826;SDS011;11580;52.562;13.418;2023-09-19T00:05:33;2.77;;;2.20;;
22826;SDS011;11580;52.562;13.418;2023-09-19T00:08:03;2.70;;;2.50;;
22826;SDS011;11580;52.562;13.418;2023-09-19T00:10:32;3.10;;;2.57;;
22826;SDS011;11580;52.562;13.418;2023-09-19T00:13:01;2.43;;;2.23;;
22826;SDS011;11580;52.562;13.418;2023-09-19T00:15:31;2.57;;;2.20;;
22826;SDS011;11580;52.562;13.418;2023-09-19T00:18:03;2.40;;;2.20;;
22826;SDS011;11580;52.562;13.418;2023-09-19T00:20:35;2.93;;;2.13;;
22826;SDS011;11580;52.562;13.418;2023-09-19T00:23:03;2.50;;;2.30;;
22826;SDS011;11580;52.562;13.418;2023-09-19T00:25:34;2.13;;;2.03;;
22826;SDS011;11580;52.562;13.418;2023-09-19T00:28:02;2.77;;;2.37;;
22826;SDS011;11580;52.562;13.418;2023-09-19T00:30:31;2.77;;;1.97;;
22826;SDS011;11580;52.562;13.418;2023-09-19T00:32:58;2.50;;;2.30;;
22826;SDS011;11580;52.562;13.418;2023-09-19T00:35:27;2.63;;;2.43;;
22826;SDS011;11580;52.562;13.418;2023-09-19T00:37:55;2.30;;;2.10;;
22826;SDS011;11580;52.562;13.418;2023-09-19T00:40:22;2.03;;;1.87;;
22826;SDS011;11580;52.562;13.418;2023-09-19T00:42:51;3.03;;;2.33;;
22826;SDS011;11580;52.562;13.418;2023-09-19T00:45:24;2.20;;;2.10;;
22826;SDS011;11580;52.562;13.418;2023-09-19T00:47:51;2.73;;;1.80;;
22826;SDS011;11580;52.562;13.418;2023-09-19T00:50:19;4.00;;;2.37;;
22826;SDS011;11580;52.562;13.418;2023-09-19T00:52:52;2.33;;;2.13;;
22826;SDS011;11580;52.562;13.418;2023-09-19T00:55:22;2.10;;;2.00;;
22826;SDS011;11580;52.562;13.418;2023-09-19T00:57:53;3.10;;;2.80;;
22826;SDS011;11580;52.562;13.418;2023-09-19T01:00:23;2.73;;;2.53;;
22826;SDS011;11580;52.562;13.418;2023-09-19T01:02:51;3.70;;;2.23;;
22826;SDS011;11580;52.562;13.418;2023-09-19T01:05:21;2.77;;;2.57;;
22826;SDS011;11580;52.562;13.418;2023-09-19T01:07:50;2.20;;;1.90;;
22826;SDS011;11580;52.562;13.418;2023-09-19T01:10:20;3.60;;;2.20;;
22826;SDS011;11580;52.562;13.418;2023-09-19T01:12:52;3.00;;;2.37;;
22826;SDS011;11580;52.562;13.418;2023-09-19T01:15:28;3.00;;;2.40;;
22826;SDS011;11580;52.562;13.418;2023-09-19T01:18:13;2.90;;;2.53;;
22826;SDS011;11580;52.562;13.418;2023-09-19T01:20:53;2.80;;;2.43;;
22826;SDS011;11580;52.562;13.418;2023-09-19T01:23:35;4.37;;;2.20;;
22826;SDS011;11580;52.562;13.418;2023-09-19T01:26:37;2.00;;;1.90;;
22826;SDS011;11580;52.562;13.418;2023-09-19T01:29:33;2.10;;;1.97;;
22826;SDS011;11580;52.562;13.418;2023-09-19T01:32:08;3.40;;;2.10;;
22826;SDS011;11580;52.562;13.418;2023-09-19T01:34:45;2.97;;;2.40;;
22826;SDS011;11580;52.562;13.418;2023-09-19T01:37:13;2.33;;;1.80;;
22826;SDS011;11580;52.562;13.418;2023-09-19T01:39:45;2.43;;;2.20;;
22826;SDS011;11580;52.562;13.418;2023-09-19T01:42:18;2.70;;;2.50;;
22826;SDS011;11580;52.562;13.418;2023-09-19T01:44:59;2.30;;;2.10;;
22826;SDS011;11580;52.562;13.418;2023-09-19T01:47:43;2.00;;;1.90;;
22826;SDS011;11580;52.562;13.418;2023-09-19T01:50:17;3.93;;;1.80;;
22826;SDS011;11580;52.562;13.418;2023-09-19T01:52:57;2.00;;;1.90;;
22826;SDS011;11580;52.562;13.418;2023-09-19T01:55:35;2.53;;;2.33;;
22826;SDS011;11580;52.562;13.418;2023-09-19T01:58:12;2.93;;;2.60;;
22826;SDS011;11580;52.562;13.418;2023-09-19T02:00:48;2.20;;;2.00;;
22826;SDS011;11580;52.562;13.418;2023-09-19T02:03:19;2.80;;;2.60;;
22826;SDS011;11580;52.562;13.418;2023-09-19T02:05:49;4.60;;;2.50;;
22826;SDS011;11580;52.562;13.418;2023-09-19T02:08:19;3.20;;;2.50;;
22826;SDS011;11580;52.562;13.418;2023-09-19T02:10:49;2.20;;;2.03;;
22826;SDS011;11580;52.562;13.418;2023-09-19T02:13:16;3.13;;;2.07;;
22826;SDS011;11580;52.562;13.418;2023-09-19T02:15:45;1.97;;;1.87;;
22826;SDS011;11580;52.562;13.418;2023-09-19T02:18:12;2.70;;;2.10;;
22826;SDS011;11580;52.562;13.418;2023-09-19T02:20:42;2.40;;;2.20;;
22826;SDS011;11580;52.562;13.418;2023-09-19T02:23:09;2.97;;;1.90;;
22826;SDS011;11580;52.562;13.418;2023-09-19T02:25:37;2.10;;;1.90;;
22826;SDS011;11580;52.562;13.418;2023-09-19T02:28:06;2.37;;;2.03;;
22826;SDS011;11580;52.562;13.418;2023-09-19T02:30:34;2.40;;;2.07;;
22826;SDS011;11580;52.562;13.418;2023-09-19T02:33:02;3.10;;;2.00;;
22826;SDS011;11580;52.562;13.418;2023-09-19T02:35:30;2.47;;;2.27;;
22826;SDS011;11580;52.562;13.418;2023-09-19T02:38:02;1.90;;;1.80;;
22826;SDS011;11580;52.562;13.418;2023-09-19T02:40:31;2.87;;;2.40;;
22826;SDS011;11580;52.562;13.418;2023-09-19T02:43:01;2.43;;;2.17;;
22826;SDS011;11580;52.562;13.418;2023-09-19T02:45:29;2.30;;;2.10;;
22826;SDS011;11580;52.562;13.418;2023-09-19T02:47:57;3.07;;;2.87;;
22826;SDS011;11580;52.562;13.418;2023-09-19T02:50:24;3.10;;;2.33;;
22826;SDS011;11580;52.562;13.418;2023-09-19T02:52:51;1.60;;;1.50;;
22826;SDS011;11580;52.562;13.418;2023-09-19T02:55:21;3.50;;;2.60;;
22826;SDS011;11580;52.562;13.418;2023-09-19T02:57:48;3.90;;;2.10;;
22826;SDS011;11580;52.562;13.418;2023-09-19T03:00:18;2.40;;;2.20;;
22826;SDS011;11580;52.562;13.418;2023-09-19T03:02:47;2.50;;;2.20;;
22826;SDS011;11580;52.562;13.418;2023-09-19T03:05:14;2.43;;;2.27;;
22826;SDS011;11580;52.562;13.418;2023-09-19T03:07:43;2.63;;;2.33;;
22826;SDS011;11580;52.562;13.418;2023-09-19T03:10:11;2.17;;;1.83;;
22826;SDS011;11580;52.562;13.418;2023-09-19T03:12:41;2.20;;;1.97;;
22826;SDS011;11580;52.562;13.418;2023-09-19T03:15:08;2.43;;;2.23;;
22826;SDS011;11580;52.562;13.418;2023-09-19T03:17:36;2.30;;;2.10;;
22826;SDS011;11580;52.562;13.418;2023-09-19T03:20:04;3.13;;;2.30;;
22826;SDS011;11580;52.562;13.418;2023-09-19T03:22:34;1.80;;;1.70;;
22826;SDS011;11580;52.562;13.418;2023-09-19T03:25:01;1.90;;;1.80;;
22826;SDS011;11580;52.562;13.418;2023-09-19T03:27:33;2.10;;;1.90;;
22826;SDS011;11580;52.562;13.418;2023-09-19T03:30:03;2.00;;;1.80;;
22826;SDS011;11580;52.562;13.418;2023-09-19T03:32:34;2.00;;;1.80;;
22826;SDS011;11580;52.562;13.418;2023-09-19T03:35:01;1.67;;;1.57;;
22826;SDS011;11580;52.562;13.418;2023-09-19T03:37:31;2.90;;;2.20;;
22826;SDS011;11580;52.562;13.418;2023-09-19T03:39:59;2.30;;;1.50;;
22826;SDS011;11580;52.562;13.418;2023-09-19T03:42:30;1.60;;;1.50;;
22826;SDS011;11580;52.562;13.418;2023-09-19T03:44:58;1.50;;;1.40;;
22826;SDS011;11580;52.562;13.418;2023-09-19T03:47:30;1.50;;;1.40;;
22826;SDS011;11580;52.562;13.418;2023-09-19T03:50:00;1.60;;;1.50;;
22826;SDS011;11580;52.562;13.418;2023-09-19T03:52:28;1.70;;;1.40;;
22826;SDS011;11580;52.562;13.418;2023-09-19T03:54:56;2.73;;;1.80;;
22826;SDS011;11580;52.562;13.418;2023-09-19T03:57:24;1.73;;;1.60;;
22826;SDS011;11580;52.562;13.418;2023-09-19T03:59:51;1.83;;;1.53;;
22826;SDS011;11580;52.562;13.418;2023-09-19T04:02:19;1.80;;;1.70;;
22826;SDS011;11580;52.562;13.418;2023-09-19T04:04:51;1.83;;;1.73;;
22826;SDS011;11580;52.562;13.418;2023-09-19T04:07:18;2.17;;;1.77;;
22826;SDS011;11580;52.562;13.418;2023-09-19T04:09:47;1.57;;;1.47;;
22826;SDS011;11580;52.562;13.418;2023-09-19T04:12:15;1.70;;;1.60;;
22826;SDS011;11580;52.562;13.418;2023-09-19T04:14:44;2.20;;;1.70;;
22826;SDS011;11580;52.562;13.418;2023-09-19T04:17:11;1.67;;;1.57;;
22826;SDS011;11580;52.562;13.418;2023-09-19T04:19:39;2.90;;;2.00;;
22826;SDS011;11580;52.562;13.418;2023-09-19T04:22:08;2.30;;;2.00;;
22826;SDS011;11580;52.562;13.418;2023-09-19T04:24:36;1.60;;;1.50;;
22826;SDS011;11580;52.562;13.418;2023-09-19T04:27:04;3.60;;;1.63;;
22826;SDS011;11580;52.562;13.418;2023-09-19T04:29:32;2.00;;;1.70;;
22826;SDS011;11580;52.562;13.418;2023-09-19T04:32:00;1.77;;;1.67;;
22826;SDS011;11580;52.562;13.418;2023-09-19T04:34:29;1.80;;;1.70;;
22826;SDS011;11580;52.562;13.418;2023-09-19T04:36:56;2.20;;;2.00;;
22826;SDS011;11580;52.562;13.418;2023-09-19T04:39:27;3.73;;;1.97;;
22826;SDS011;11580;52.562;13.418;2023-09-19T04:41:54;2.30;;;1.77;;
22826;SDS011;11580;52.562;13.418;2023-09-19T04:44:22;2.43;;;1.80;;
22826;SDS011;11580;52.562;13.418;2023-09-19T04:46:49;2.50;;;2.27;;
22826;SDS011;11580;52.562;13.418;2023-09-19T04:49:16;1.90;;;1.80;;
22826;SDS011;11580;52.562;13.418;2023-09-19T04:51:43;3.33;;;2.00;;
22826;SDS011;11580;52.562;13.418;2023-09-19T04:54:12;1.80;;;1.70;;
22826;SDS011;11580;52.562;13.418;2023-09-19T04:56:41;2.00;;;1.90;;
22826;SDS011;11580;52.562;13.418;2023-09-19T04:59:08;3.07;;;2.23;;
22826;SDS011;11580;52.562;13.418;2023-09-19T05:01:36;1.80;;;1.70;;
22826;SDS011;11580;52.562;13.418;2023-09-19T05:04:04;2.60;;;1.90;;
22826;SDS011;11580;52.562;13.418;2023-09-19T05:06:31;3.73;;;2.63;;
22826;SDS011;11580;52.562;13.418;2023-09-19T05:09:00;1.87;;;1.77;;
22826;SDS011;11580;52.562;13.418;2023-09-19T05:11:30;1.93;;;1.83;;
22826;SDS011;11580;52.562;13.418;2023-09-19T05:14:00;2.70;;;2.50;;
22826;SDS011;11580;52.562;13.418;2023-09-19T05:16:28;2.00;;;1.80;;
22826;SDS011;11580;52.562;13.418;2023-09-19T05:18:57;2.33;;;2.13;;
22826;SDS011;11580;52.562;13.418;2023-09-19T05:21:25;2.33;;;2.10;;
22826;SDS011;11580;52.562;13.418;2023-09-19T05:23:54;2.60;;;2.40;;
22826;SDS011;11580;52.562;13.418;2023-09-19T05:26:21;2.30;;;2.10;;
22826;SDS011;11580;52.562;13.418;2023-09-19T05:28:48;4.10;;;2.13;;
22826;SDS011;11580;52.562;13.418;2023-09-19T05:31:17;3.10;;;2.10;;
22826;SDS011;11580;52.562;13.418;2023-09-19T05:33:44;2.30;;;2.10;;
22826;SDS011;11580;52.562;13.418;2023-09-19T05:36:11;1.90;;;1.80;;
22826;SDS011;11580;52.562;13.418;2023-09-19T05:38:41;1.90;;;1.80;;
22826;SDS011;11580;52.562;13.418;2023-09-19T05:41:09;3.50;;;2.73;;
22826;SDS011;11580;52.562;13.418;2023-09-19T05:43:38;2.10;;;1.77;;
22826;SDS011;11580;52.562;13.418;2023-09-19T05:46:06;3.50;;;2.00;;
22826;SDS011;11580;52.562;13.418;2023-09-19T05:48:35;2.20;;;2.00;;
22826;SDS011;11580;52.562;13.418;2023-09-19T05:51:04;2.30;;;2.10;;
22826;SDS011;11580;52.562;13.418;2023-09-19T05:53:31;2.83;;;2.00;;
22826;SDS011;11580;52.562;13.418;2023-09-19T05:55:59;3.90;;;2.60;;
22826;SDS011;11580;52.562;13.418;2023-09-19T05:58:26;2.50;;;2.30;;
22826;SDS011;11580;52.562;13.418;2023-09-19T06:00:53;3.20;;;2.13;;
22826;SDS011;11580;52.562;13.418;2023-09-19T06:03:21;2.43;;;2.23;;
22826;SDS011;11580;52.562;13.418;2023-09-19T06:05:50;2.50;;;2.30;;
22826;SDS011;11580;52.562;13.418;2023-09-19T06:08:18;2.53;;;2.33;;
22826;SDS011;11580;52.562;13.418;2023-09-19T06:10:45;5.00;;;2.10;;
22826;SDS011;11580;52.562;13.418;2023-09-19T06:13:14;2.40;;;2.17;;
22826;SDS011;11580;52.562;13.418;2023-09-19T06:15:41;2.13;;;1.93;;
22826;SDS011;11580;52.562;13.418;2023-09-19T06:18:10;2.40;;;2.20;;
22826;SDS011;11580;52.562;13.418;2023-09-19T06:20:40;1.83;;;1.73;;
22826;SDS011;11580;52.562;13.418;2023-09-19T06:23:11;2.07;;;1.87;;
22826;SDS011;11580;52.562;13.418;2023-09-19T06:25:38;2.90;;;2.13;;
22826;SDS011;11580;52.562;13.418;2023-09-19T06:28:06;2.07;;;1.87;;
22826;SDS011;11580;52.562;13.418;2023-09-19T06:30:37;2.70;;;2.50;;
22826;SDS011;11580;52.562;13.418;2023-09-19T06:33:06;3.53;;;2.43;;
22826;SDS011;11580;52.562;13.418;2023-09-19T06:35:36;2.87;;;2.30;;
22826;SDS011;11580;52.562;13.418;2023-09-19T06:38:03;2.70;;;2.50;;
22826;SDS011;11580;52.562;13.418;2023-09-19T06:40:33;2.60;;;2.37;;
22826;SDS011;11580;52.562;13.418;2023-09-19T06:43:01;2.20;;;1.70;;
22826;SDS011;11580;52.562;13.418;2023-09-19T06:45:29;2.30;;;2.17;;
22826;SDS011;11580;52.562;13.418;2023-09-19T06:47:57;2.40;;;2.20;;
22826;SDS011;11580;52.562;13.418;2023-09-19T06:50:25;2.77;;;2.50;;
22826;SDS011;11580;52.562;13.418;2023-09-19T06:52:53;4.80;;;2.27;;
22826;SDS011;11580;52.562;13.418;2023-09-19T06:55:22;2.47;;;2.23;;
22826;SDS011;11580;52.562;13.418;2023-09-19T06:57:51;2.87;;;2.40;;
22826;SDS011;11580;52.562;13.418;2023-09-19T07:00:19;4.30;;;2.10;;
22826;SDS011;11580;52.562;13.418;2023-09-19T07:02:54;2.80;;;2.33;;
22826;SDS011;11580;52.562;13.418;2023-09-19T07:05:24;2.80;;;2.50;;
22826;SDS011;11580;52.562;13.418;2023-09-19T07:07:52;2.80;;;2.23;;
22826;SDS011;11580;52.562;13.418;2023-09-19T07:10:20;2.63;;;2.20;;
22826;SDS011;11580;52.562;13.418;2023-09-19T07:12:58;2.60;;;2.40;;
22826;SDS011;11580;52.562;13.418;2023-09-19T07:15:27;3.27;;;2.60;;
22826;SDS011;11580;52.562;13.418;2023-09-19T07:17:56;2.47;;;2.27;;
22826;SDS011;11580;52.562;13.418;2023-09-19T07:20:23;2.27;;;2.07;;
22826;SDS011;11580;52.562;13.418;2023-09-19T07:22:52;2.60;;;2.00;;
22826;SDS011;11580;52.562;13.418;2023-09-19T07:25:20;2.23;;;2.03;;
22826;SDS011;11580;52.562;13.418;2023-09-19T07:27:48;4.53;;;2.20;;
22826;SDS011;11580;52.562;13.418;2023-09-19T07:30:17;3.00;;;2.50;;
22826;SDS011;11580;52.562;13.418;2023-09-19T07:32:44;2.90;;;2.23;;
22826;SDS011;11580;52.562;13.418;2023-09-19T07:35:12;2.73;;;2.30;;
22826;SDS011;11580;52.562;13.418;2023-09-19T07:37:40;2.37;;;2.17;;
22826;SDS011;11580;52.562;13.418;2023-09-19T07:40:07;2.73;;;2.53;;
22826;SDS011;11580;52.562;13.418;2023-09-19T07:42:37;2.90;;;2.00;;
22826;SDS011;11580;52.562;13.418;2023-09-19T07:45:06;4.40;;;2.40;;
22826;SDS011;11580;52.562;13.418;2023-09-19T07:47:36;2.97;;;2.70;;
22826;SDS011;11580;52.562;13.418;2023-09-19T07:50:03;2.37;;;2.27;;
22826;SDS011;11580;52.562;13.418;2023-09-19T07:52:32;2.77;;;2.57;;
22826;SDS011;11580;52.562;13.418;2023-09-19T07:55:00;3.03;;;2.53;;
22826;SDS011;11580;52.562;13.418;2023-09-19T07:57:34;2.57;;;2.37;;
22826;SDS011;11580;52.562;13.418;2023-09-19T08:00:03;3.00;;;2.70;;
22826;SDS011;11580;52.562;13.418;2023-09-19T08:02:38;2.90;;;2.70;;
22826;SDS011;11580;52.562;13.418;2023-09-19T08:05:07;2.83;;;2.63;;
22826;SDS011;11580;52.562;13.418;2023-09-19T08:07:36;3.00;;;2.80;;
22826;SDS011;11580;52.562;13.418;2023-09-19T08:10:04;2.90;;;2.70;;
22826;SDS011;11580;52.562;13.418;2023-09-19T08:12:38;3.13;;;2.83;;
22826;SDS011;11580;52.562;13.418;2023-09-19T08:15:11;3.03;;;2.80;;
22826;SDS011;11580;52.562;13.418;2023-09-19T08:17:41;3.47;;;3.17;;
22826;SDS011;11580;52.562;13.418;2023-09-19T08:20:09;3.10;;;2.80;;
22826;SDS011;11580;52.562;13.418;2023-09-19T08:22:42;2.93;;;2.63;;
22826;SDS011;11580;52.562;13.418;2023-09-19T08:25:13;3.00;;;2.23;;
22826;SDS011;11580;52.562;13.418;2023-09-19T08:27:42;3.60;;;3.30;;
22826;SDS011;11580;52.562;13.418;2023-09-19T08:30:13;2.93;;;2.70;;
22826;SDS011;11580;52.562;13.418;2023-09-19T08:32:42;2.83;;;2.47;;
22826;SDS011;11580;52.562;13.418;2023-09-19T08:35:11;3.73;;;2.40;;
22826;SDS011;11580;52.562;13.418;2023-09-19T08:37:38;2.50;;;2.30;;
22826;SDS011;11580;52.562;13.418;2023-09-19T08:40:06;3.17;;;2.83;;
22826;SDS011;11580;52.562;13.418;2023-09-19T08:42:47;2.80;;;2.60;;
22826;SDS011;11580;52.562;13.418;2023-09-19T08:45:16;3.20;;;2.90;;
22826;SDS011;11580;52.562;13.418;2023-09-19T08:47:47;3.03;;;2.80;;
22826;SDS011;11580;52.562;13.418;2023-09-19T08:50:27;4.17;;;3.60;;
22826;SDS011;11580;52.562;13.418;2023-09-19T08:52:56;3.60;;;3.30;;
22826;SDS011;11580;52.562;13.418;2023-09-19T08:55:27;3.27;;;3.00;;
22826;SDS011;11580;52.562;13.418;2023-09-19T08:57:59;4.00;;;3.13;;
22826;SDS011;11580;52.562;13.418;2023-09-19T09:00:29;3.90;;;3.53;;
22826;SDS011;11580;52.562;13.418;2023-09-19T09:02:59;4.30;;;3.50;;
22826;SDS011;11580;52.562;13.418;2023-09-19T09:05:29;3.43;;;2.80;;
22826;SDS011;11580;52.562;13.418;2023-09-19T09:07:58;5.03;;;3.10;;
22826;SDS011;11580;52.562;13.418;2023-09-19T09:10:26;3.80;;;3.50;;
22826;SDS011;11580;52.562;13.418;2023-09-19T09:12:54;3.67;;;2.90;;
22826;SDS011;11580;52.562;13.418;2023-09-19T09:15:24;2.80;;;2.53;;
22826;SDS011;11580;52.562;13.418;2023-09-19T09:17:51;3.23;;;2.93;;
22826;SDS011;11580;52.562;13.418;2023-09-19T09:20:20;3.00;;;2.80;;
22826;SDS011;11580;52.562;13.418;2023-09-19T09:22:51;2.50;;;2.30;;
22826;SDS011;11580;52.562;13.418;2023-09-19T09:25:20;2.73;;;2.40;;
22826;SDS011;11580;52.562;13.418;2023-09-19T09:27:58;4.07;;;3.07;;
22826;SDS011;11580;52.562;13.418;2023-09-19T09:30:33;3.13;;;2.77;;
22826;SDS011;11580;52.562;13.418;2023-09-19T09:33:08;2.80;;;2.60;;
22826;SDS011;11580;52.562;13.418;2023-09-19T09:35:38;5.10;;;3.60;;
22826;SDS011;11580;52.562;13.418;2023-09-19T09:38:17;3.30;;;3.00;;
22826;SDS011;11580;52.562;13.418;2023-09-19T09:40:46;2.90;;;2.70;;
22826;SDS011;11580;52.562;13.418;2023-09-19T09:43:27;3.40;;;3.10;;
22826;SDS011;11580;52.562;13.418;2023-09-19T09:46:10;3.87;;;3.10;;
22826;SDS011;11580;52.562;13.418;2023-09-19T09:48:59;4.13;;;2.90;;
22826;SDS011;11580;52.562;13.418;2023-09-19T09:51:59;3.93;;;3.17;;
22826;SDS011;11580;52.562;13.418;2023-09-19T09:54:32;4.33;;;3.17;;
22826;SDS011;11580;52.562;13.418;2023-09-19T09:57:02;2.90;;;2.70;;
22826;SDS011;11580;52.562;13.418;2023-09-19T09:59:45;4.10;;;3.17;;
22826;SDS011;11580;52.562;13.418;2023-09-19T10:02:20;4.53;;;3.00;;
22826;SDS011;11580;52.562;13.418;2023-09-19T10:04:54;3.17;;;2.97;;
22826;SDS011;11580;52.562;13.418;2023-09-19T10:07:36;3.47;;;2.50;;
22826;SDS011;11580;52.562;13.418;2023-09-19T10:10:07;3.43;;;3.07;;
22826;SDS011;11580;52.562;13.418;2023-09-19T10:12:47;5.23;;;3.20;;
22826;SDS011;11580;52.562;13.418;2023-09-19T10:15:15;4.03;;;2.63;;
22826;SDS011;11580;52.562;13.418;2023-09-19T10:17:46;3.83;;;3.20;;
22826;SDS011;11580;52.562;13.418;2023-09-19T10:20:14;3.77;;;3.27;;
22826;SDS011;11580;52.562;13.418;2023-09-19T10:22:51;3.73;;;3.43;;
22826;SDS011;11580;52.562;13.418;2023-09-19T10:25:26;5.47;;;3.20;;
22826;SDS011;11580;52.562;13.418;2023-09-19T10:27:56;3.20;;;2.90;;
22826;SDS011;11580;52.562;13.418;2023-09-19T10:30:28;5.27;;;3.40;;
22826;SDS011;11580;52.562;13.418;2023-09-19T10:33:02;3.40;;;2.90;;
22826;SDS011;11580;52.562;13.418;2023-09-19T10:35:32;3.27;;;2.73;;
22826;SDS011;11580;52.562;13.418;2023-09-19T10:38:07;3.60;;;3.30;;
22826;SDS011;11580;52.562;13.418;2023-09-19T10:40:37;3.60;;;3.17;;
22826;SDS011;11580;52.562;13.418;2023-09-19T10:43:11;4.60;;;2.93;;
22826;SDS011;11580;52.562;13.418;2023-09-19T10:45:42;3.70;;;2.93;;
22826;SDS011;11580;52.562;13.418;2023-09-19T10:48:13;3.70;;;2.70;;
22826;SDS011;11580;52.562;13.418;2023-09-19T10:50:43;2.67;;;2.47;;
22826;SDS011;11580;52.562;13.418;2023-09-19T10:53:18;3.20;;;2.90;;
22826;SDS011;11580;52.562;13.418;2023-09-19T10:55:49;4.50;;;3.00;;
22826;SDS011;11580;52.562;13.418;2023-09-19T10:58:25;2.80;;;2.60;;
22826;SDS011;11580;52.562;13.418;2023-09-19T11:00:55;4.73;;;3.10;;
22826;SDS011;11580;52.562;13.418;2023-09-19T11:03:30;3.13;;;2.83;;
22826;SDS011;11580;52.562;13.418;2023-09-19T11:06:02;2.47;;;2.27;;
22826;SDS011;11580;52.562;13.418;2023-09-19T11:08:53;2.90;;;2.60;;
22826;SDS011;11580;52.562;13.418;2023-09-19T11:11:51;3.27;;;2.93;;
22826;SDS011;11580;52.562;13.418;2023-09-19T11:14:29;3.50;;;2.83;;
22826;SDS011;11580;52.562;13.418;2023-09-19T11:20:20;4.30;;;2.57;;
22826;SDS011;11580;52.562;13.418;2023-09-19T11:23:19;4.57;;;3.03;;
22826;SDS011;11580;52.562;13.418;2023-09-19T11:25:57;2.70;;;2.40;;
22826;SDS011;11580;52.562;13.418;2023-09-19T11:28:34;3.27;;;2.57;;
22826;SDS011;11580;52.562;13.418;2023-09-19T11:40:44;2.40;;;2.20;;
22826;SDS011;11580;52.562;13.418;2023-09-19T11:43:33;5.10;;;2.30;;
22826;SDS011;11580;52.562;13.418;2023-09-19T11:46:04;2.97;;;2.50;;
22826;SDS011;11580;52.562;13.418;2023-09-19T11:48:32;3.23;;;2.30;;
22826;SDS011;11580;52.562;13.418;2023-09-19T11:51:12;3.30;;;2.50;;
22826;SDS011;11580;52.562;13.418;2023-09-19T11:53:47;3.10;;;2.00;;
22826;SDS011;11580;52.562;13.418;2023-09-19T11:56:17;2.70;;;1.77;;
22826;SDS011;11580;52.562;13.418;2023-09-19T11:58:50;2.20;;;2.00;;
22826;SDS011;11580;52.562;13.418;2023-09-19T12:01:23;4.03;;;2.07;;
22826;SDS011;11580;52.562;13.418;2023-09-19T12:03:57;3.47;;;2.20;;
22826;SDS011;11580;52.562;13.418;2023-09-19T12:06:27;3.27;;;2.07;;
22826;SDS011;11580;52.562;13.418;2023-09-19T12:08:57;3.20;;;2.33;;
22826;SDS011;11580;52.562;13.418;2023-09-19T12:11:27;2.63;;;2.13;;
22826;SDS011;11580;52.562;13.418;2023-09-19T12:13:59;3.23;;;2.60;;
22826;SDS011;11580;52.562;13.418;2023-09-19T12:16:29;3.33;;;2.30;;
22826;SDS011;11580;52.562;13.418;2023-09-19T12:18:58;2.97;;;2.10;;
22826;SDS011;11580;52.562;13.418;2023-09-19T12:21:52;2.43;;;2.23;;
22826;SDS011;11580;52.562;13.418;2023-09-19T12:24:23;2.27;;;2.00;;
22826;SDS011;11580;52.562;13.418;2023-09-19T12:26:52;3.53;;;2.53;;
22826;SDS011;11580;52.562;13.418;2023-09-19T12:29:23;2.63;;;2.00;;
22826;SDS011;11580;52.562;13.418;2023-09-19T12:31:51;2.77;;;1.63;;
22826;SDS011;11580;52.562;13.418;2023-09-19T12:34:23;2.47;;;2.00;;
22826;SDS011;11580;52.562;13.418;2023-09-19T12:37:06;2.80;;;2.30;;
22826;SDS011;11580;52.562;13.418;2023-09-19T12:39:38;2.77;;;1.80;;
22826;SDS011;11580;52.562;13.418;2023-09-19T12:42:08;1.70;;;1.60;;
22826;SDS011;11580;52.562;13.418;2023-09-19T12:44:41;2.57;;;1.63;;
22826;SDS011;11580;52.562;13.418;2023-09-19T12:47:12;4.50;;;1.97;;
22826;SDS011;11580;52.562;13.418;2023-09-19T12:52:40;2.37;;;1.83;;
22826;SDS011;11580;52.562;13.418;2023-09-19T12:55:19;2.00;;;1.60;;
22826;SDS011;11580;52.562;13.418;2023-09-19T12:58:08;1.77;;;1.67;;
22826;SDS011;11580;52.562;13.418;2023-09-19T13:00:42;2.93;;;1.60;;
22826;SDS011;11580;52.562;13.418;2023-09-19T13:03:14;3.93;;;1.97;;
22826;SDS011;11580;52.562;13.418;2023-09-19T13:05:56;2.20;;;1.47;;
22826;SDS011;11580;52.562;13.418;2023-09-19T13:08:28;2.43;;;1.80;;
22826;SDS011;11580;52.562;13.418;2023-09-19T13:11:01;2.03;;;1.57;;
22826;SDS011;11580;52.562;13.418;2023-09-19T13:13:38;2.20;;;2.00;;
22826;SDS011;11580;52.562;13.418;2023-09-19T13:16:10;3.03;;;1.67;;
22826;SDS011;11580;52.562;13.418;2023-09-19T13:18:47;3.47;;;1.90;;
22826;SDS011;11580;52.562;13.418;2023-09-19T13:21:26;2.60;;;2.30;;
22826;SDS011;11580;52.562;13.418;2023-09-19T13:24:17;2.23;;;1.77;;
22826;SDS011;11580;52.562;13.418;2023-09-19T13:26:46;3.30;;;1.83;;
22826;SDS011;11580;52.562;13.418;2023-09-19T13:29:13;2.27;;;1.77;;
22826;SDS011;11580;52.562;13.418;2023-09-19T13:31:46;2.40;;;1.70;;
22826;SDS011;11580;52.562;13.418;2023-09-19T13:34:14;2.60;;;2.07;;
22826;SDS011;11580;52.562;13.418;2023-09-19T13:36:42;3.07;;;1.67;;
22826;SDS011;11580;52.562;13.418;2023-09-19T13:39:10;3.00;;;1.60;;
22826;SDS011;11580;52.562;13.418;2023-09-19T13:41:38;2.07;;;1.87;;
22826;SDS011;11580;52.562;13.418;2023-09-19T13:44:05;1.50;;;1.37;;
22826;SDS011;11580;52.562;13.418;2023-09-19T13:46:35;2.27;;;1.70;;
22826;SDS011;11580;52.562;13.418;2023-09-19T13:49:04;1.80;;;1.70;;
22826;SDS011;11580;52.562;13.418;2023-09-19T13:51:31;2.50;;;2.20;;
22826;SDS011;11580;52.562;13.418;2023-09-19T13:53:59;3.50;;;2.27;;
22826;SDS011;11580;52.562;13.418;2023-09-19T13:56:26;1.80;;;1.57;;
22826;SDS011;11580;52.562;13.418;2023-09-19T13:58:55;2.00;;;1.77;;
22826;SDS011;11580;52.562;13.418;2023-09-19T14:01:22;3.27;;;1.93;;
22826;SDS011;11580;52.562;13.418;2023-09-19T14:03:51;3.40;;;2.27;;
22826;SDS011;11580;52.562;13.418;2023-09-19T14:06:23;2.70;;;1.77;;
22826;SDS011;11580;52.562;13.418;2023-09-19T14:08:50;3.63;;;1.83;;
22826;SDS011;11580;52.562;13.418;2023-09-19T14:11:17;2.93;;;2.03;;
22826;SDS011;11580;52.562;13.418;2023-09-19T14:13:44;2.80;;;1.83;;
22826;SDS011;11580;52.562;13.418;2023-09-19T14:16:13;2.37;;;1.97;;
22826;SDS011;11580;52.562;13.418;2023-09-19T14:18:44;2.60;;;1.80;;
22826;SDS011;11580;52.562;13.418;2023-09-19T14:21:12;3.10;;;2.23;;
22826;SDS011;11580;52.562;13.418;2023-09-19T14:23:41;1.87;;;1.77;;
22826;SDS011;11580;52.562;13.418;2023-09-19T14:26:09;2.20;;;2.00;;
22826;SDS011;11580;52.562;13.418;2023-09-19T14:28:36;2.40;;;1.97;;
22826;SDS011;11580;52.562;13.418;2023-09-19T14:31:04;3.40;;;2.60;;
22826;SDS011;11580;52.562;13.418;2023-09-19T14:33:33;3.40;;;2.83;;
22826;SDS011;11580;52.562;13.418;2023-09-19T14:36:02;3.30;;;3.00;;
22826;SDS011;11580;52.562;13.418;2023-09-19T14:38:32;3.30;;;2.63;;
22826;SDS011;11580;52.562;13.418;2023-09-19T14:41:01;3.50;;;2.03;;
22826;SDS011;11580;52.562;13.418;2023-09-19T14:43:29;2.40;;;1.80;;
22826;SDS011;11580;52.562;13.418;2023-09-19T14:45:57;2.00;;;1.90;;
22826;SDS011;11580;52.562;13.418;2023-09-19T14:48:29;2.30;;;1.90;;
22826;SDS011;11580;52.562;13.418;2023-09-19T14:51:01;2.63;;;2.10;;
22826;SDS011;11580;52.562;13.418;2023-09-19T14:53:29;3.23;;;2.13;;
22826;SDS011;11580;52.562;13.418;2023-09-19T14:55:56;2.30;;;1.90;;
22826;SDS011;11580;52.562;13.418;2023-09-19T14:58:28;2.10;;;1.90;;
22826;SDS011;11580;52.562;13.418;2023-09-19T15:01:01;3.40;;;1.90;;
22826;SDS011;11580;52.562;13.418;2023-09-19T15:03:31;4.20;;;2.10;;
22826;SDS011;11580;52.562;13.418;2023-09-19T15:05:59;3.43;;;2.60;;
22826;SDS011;11580;52.562;13.418;2023-09-19T15:08:26;3.53;;;2.50;;
22826;SDS011;11580;52.562;13.418;2023-09-19T15:10:54;2.43;;;2.23;;